Terminal Aerodrome Forecast
Issued by NWS Tulsa, OK

Home | Current Version | Previous Version | Text Only | Print | Product List | Glossary On
Versions: 1 2 3 4 5 6 7 8 9 10 11 12 13 14 15 16 17 18 19 20 21 22 23 24 25 26
000
FTUS44 KTSA 251700 CCA
TAFFSM
TAF COR
KFSM 251739Z 2518/2618 13008KT P6SM SCT025 BKN040
     FM252000 14008KT P6SM BKN040
     FM252300 14010KT P6SM VCTS SCT025 BKN035CB
      TEMPO 2523/2603 24020G35KT 1SM +TSRA BKN015CB
     FM260300 18013KT P6SM VCSH OVC025
     FM260900 20002KT 3SM BR OVC007
     FM261500 25004KT P6SM OVC025=

USA.gov is the U.S. government's official web portal to all federal, state and local government web resources and services.